sensor_id;sensor_type;location;lat;lon;timestamp;temperature;humidity
69436;SHT31;56625;54.322;18.582;2023-05-16T00:00:54;13.21;88.92
69436;SHT31;56625;54.322;18.582;2023-05-16T00:03:24;13.19;89.07
69436;SHT31;56625;54.322;18.582;2023-05-16T00:05:52;13.17;89.10
69436;SHT31;56625;54.322;18.582;2023-05-16T00:08:20;13.15;89.19
69436;SHT31;56625;54.322;18.582;2023-05-16T00:10:48;13.14;89.25
69436;SHT31;56625;54.322;18.582;2023-05-16T00:13:16;13.12;89.31
69436;SHT31;56625;54.322;18.582;2023-05-16T00:15:48;13.09;89.41
69436;SHT31;56625;54.322;18.582;2023-05-16T00:18:17;13.07;89.40
69436;SHT31;56625;54.322;18.582;2023-05-16T00:20:45;13.06;89.47
69436;SHT31;56625;54.322;18.582;2023-05-16T00:23:14;13.08;89.44
69436;SHT31;56625;54.322;18.582;2023-05-16T00:25:42;13.07;89.50
69436;SHT31;56625;54.322;18.582;2023-05-16T00:28:10;13.06;89.48
69436;SHT31;56625;54.322;18.582;2023-05-16T00:30:38;13.08;89.42
69436;SHT31;56625;54.322;18.582;2023-05-16T00:33:06;13.10;89.37
69436;SHT31;56625;54.322;18.582;2023-05-16T00:35:34;13.13;89.30
69436;SHT31;56625;54.322;18.582;2023-05-16T00:38:02;13.16;89.19
69436;SHT31;56625;54.322;18.582;2023-05-16T00:40:30;13.19;89.15
69436;SHT31;56625;54.322;18.582;2023-05-16T00:42:58;13.24;89.13
69436;SHT31;56625;54.322;18.582;2023-05-16T00:45:27;13.28;89.06
69436;SHT31;56625;54.322;18.582;2023-05-16T00:47:55;13.30;88.88
69436;SHT31;56625;54.322;18.582;2023-05-16T00:50:23;13.29;88.70
69436;SHT31;56625;54.322;18.582;2023-05-16T00:52:51;13.27;88.66
69436;SHT31;56625;54.322;18.582;2023-05-16T00:55:19;13.23;88.71
69436;SHT31;56625;54.322;18.582;2023-05-16T00:57:47;13.21;88.70
69436;SHT31;56625;54.322;18.582;2023-05-16T01:00:16;13.20;88.71
69436;SHT31;56625;54.322;18.582;2023-05-16T01:02:46;13.19;88.75
69436;SHT31;56625;54.322;18.582;2023-05-16T01:05:14;13.18;88.80
69436;SHT31;56625;54.322;18.582;2023-05-16T01:07:42;13.17;88.81
69436;SHT31;56625;54.322;18.582;2023-05-16T01:10:10;13.15;88.84
69436;SHT31;56625;54.322;18.582;2023-05-16T01:12:41;13.16;88.80
69436;SHT31;56625;54.322;18.582;2023-05-16T01:15:35;13.16;88.79
69436;SHT31;56625;54.322;18.582;2023-05-16T01:18:24;13.17;88.74
69436;SHT31;56625;54.322;18.582;2023-05-16T01:21:11;13.19;88.71
69436;SHT31;56625;54.322;18.582;2023-05-16T01:23:59;13.19;88.59
69436;SHT31;56625;54.322;18.582;2023-05-16T01:26:46;13.22;88.53
69436;SHT31;56625;54.322;18.582;2023-05-16T01:29:17;13.20;88.43
69436;SHT31;56625;54.322;18.582;2023-05-16T01:31:45;13.19;88.38
69436;SHT31;56625;54.322;18.582;2023-05-16T01:34:13;13.17;88.34
69436;SHT31;56625;54.322;18.582;2023-05-16T01:36:59;13.14;88.42
69436;SHT31;56625;54.322;18.582;2023-05-16T01:39:46;13.11;88.42
69436;SHT31;56625;54.322;18.582;2023-05-16T01:42:26;13.08;88.52
69436;SHT31;56625;54.322;18.582;2023-05-16T01:45:05;13.06;88.46
69436;SHT31;56625;54.322;18.582;2023-05-16T01:47:35;13.06;88.41
69436;SHT31;56625;54.322;18.582;2023-05-16T01:55:31;13.14;88.36
69436;SHT31;56625;54.322;18.582;2023-05-16T01:58:14;13.16;88.16
69436;SHT31;56625;54.322;18.582;2023-05-16T02:00:47;13.15;88.02
69436;SHT31;56625;54.322;18.582;2023-05-16T02:03:15;13.11;87.92
69436;SHT31;56625;54.322;18.582;2023-05-16T02:05:43;13.07;87.91
69436;SHT31;56625;54.322;18.582;2023-05-16T02:08:12;13.05;87.96
69436;SHT31;56625;54.322;18.582;2023-05-16T02:10:40;13.02;87.98
69436;SHT31;56625;54.322;18.582;2023-05-16T02:13:08;12.98;88.00
69436;SHT31;56625;54.322;18.582;2023-05-16T02:15:36;12.97;88.01
69436;SHT31;56625;54.322;18.582;2023-05-16T02:18:04;12.95;88.10
69436;SHT31;56625;54.322;18.582;2023-05-16T02:20:32;12.93;88.09
69436;SHT31;56625;54.322;18.582;2023-05-16T02:23:00;12.90;88.09
69436;SHT31;56625;54.322;18.582;2023-05-16T02:25:29;12.90;88.11
69436;SHT31;56625;54.322;18.582;2023-05-16T02:27:57;12.88;88.12
69436;SHT31;56625;54.322;18.582;2023-05-16T02:30:25;12.87;88.17
69436;SHT31;56625;54.322;18.582;2023-05-16T02:32:53;12.85;88.26
69436;SHT31;56625;54.322;18.582;2023-05-16T02:35:20;12.83;88.29
69436;SHT31;56625;54.322;18.582;2023-05-16T02:37:48;12.81;88.33
69436;SHT31;56625;54.322;18.582;2023-05-16T02:40:16;12.80;88.42
69436;SHT31;56625;54.322;18.582;2023-05-16T02:42:44;12.78;88.49
69436;SHT31;56625;54.322;18.582;2023-05-16T02:45:12;12.77;88.52
69436;SHT31;56625;54.322;18.582;2023-05-16T02:47:40;12.78;88.53
69436;SHT31;56625;54.322;18.582;2023-05-16T02:50:09;12.78;88.57
69436;SHT31;56625;54.322;18.582;2023-05-16T02:52:37;12.76;88.58
69436;SHT31;56625;54.322;18.582;2023-05-16T02:55:05;12.76;88.64
69436;SHT31;56625;54.322;18.582;2023-05-16T02:57:37;12.76;88.64
69436;SHT31;56625;54.322;18.582;2023-05-16T03:00:05;12.75;88.70
69436;SHT31;56625;54.322;18.582;2023-05-16T03:02:38;12.74;88.74
69436;SHT31;56625;54.322;18.582;2023-05-16T03:05:06;12.74;88.84
69436;SHT31;56625;54.322;18.582;2023-05-16T03:07:36;12.73;88.90
69436;SHT31;56625;54.322;18.582;2023-05-16T03:10:05;12.73;88.90
69436;SHT31;56625;54.322;18.582;2023-05-16T03:12:34;12.73;89.04
69436;SHT31;56625;54.322;18.582;2023-05-16T03:15:02;12.73;89.07
69436;SHT31;56625;54.322;18.582;2023-05-16T03:17:30;12.73;89.09
69436;SHT31;56625;54.322;18.582;2023-05-16T03:19:58;12.74;89.10
69436;SHT31;56625;54.322;18.582;2023-05-16T03:22:26;12.77;89.13
69436;SHT31;56625;54.322;18.582;2023-05-16T03:24:54;12.77;89.14
69436;SHT31;56625;54.322;18.582;2023-05-16T03:27:22;12.77;89.13
69436;SHT31;56625;54.322;18.582;2023-05-16T03:29:51;12.78;89.17
69436;SHT31;56625;54.322;18.582;2023-05-16T03:32:19;12.78;89.27
69436;SHT31;56625;54.322;18.582;2023-05-16T03:34:46;12.77;89.24
69436;SHT31;56625;54.322;18.582;2023-05-16T03:37:14;12.79;89.26
69436;SHT31;56625;54.322;18.582;2023-05-16T03:39:42;12.80;89.31
69436;SHT31;56625;54.322;18.582;2023-05-16T03:42:10;12.81;89.28
69436;SHT31;56625;54.322;18.582;2023-05-16T03:44:38;12.81;89.27
69436;SHT31;56625;54.322;18.582;2023-05-16T03:47:06;12.81;89.30
69436;SHT31;56625;54.322;18.582;2023-05-16T03:49:34;12.80;89.26
69436;SHT31;56625;54.322;18.582;2023-05-16T03:52:03;12.81;89.28
69436;SHT31;56625;54.322;18.582;2023-05-16T03:54:32;12.79;89.27
69436;SHT31;56625;54.322;18.582;2023-05-16T03:57:00;12.77;89.17
69436;SHT31;56625;54.322;18.582;2023-05-16T03:59:28;12.73;88.79
69436;SHT31;56625;54.322;18.582;2023-05-16T04:01:56;12.67;88.18
69436;SHT31;56625;54.322;18.582;2023-05-16T04:04:24;12.62;87.73
69436;SHT31;56625;54.322;18.582;2023-05-16T04:06:52;12.57;87.33
69436;SHT31;56625;54.322;18.582;2023-05-16T04:09:20;12.53;87.06
69436;SHT31;56625;54.322;18.582;2023-05-16T04:11:48;12.46;86.85
69436;SHT31;56625;54.322;18.582;2023-05-16T04:14:16;12.41;86.97
69436;SHT31;56625;54.322;18.582;2023-05-16T04:16:43;12.38;87.04
69436;SHT31;56625;54.322;18.582;2023-05-16T04:19:12;12.33;86.86
69436;SHT31;56625;54.322;18.582;2023-05-16T04:21:39;12.28;87.01
69436;SHT31;56625;54.322;18.582;2023-05-16T04:24:08;12.27;87.12
69436;SHT31;56625;54.322;18.582;2023-05-16T04:26:36;12.26;87.19
69436;SHT31;56625;54.322;18.582;2023-05-16T04:29:04;12.25;87.24
69436;SHT31;56625;54.322;18.582;2023-05-16T04:31:32;12.28;87.07
69436;SHT31;56625;54.322;18.582;2023-05-16T04:34:00;12.28;86.89
69436;SHT31;56625;54.322;18.582;2023-05-16T04:36:28;12.28;86.58
69436;SHT31;56625;54.322;18.582;2023-05-16T04:38:56;12.28;86.73
69436;SHT31;56625;54.322;18.582;2023-05-16T04:41:24;12.25;86.51
69436;SHT31;56625;54.322;18.582;2023-05-16T04:43:53;12.21;86.04
69436;SHT31;56625;54.322;18.582;2023-05-16T04:46:21;12.21;86.20
69436;SHT31;56625;54.322;18.582;2023-05-16T04:48:49;12.17;86.30
69436;SHT31;56625;54.322;18.582;2023-05-16T04:51:18;12.12;86.75
69436;SHT31;56625;54.322;18.582;2023-05-16T04:53:46;12.10;87.15
69436;SHT31;56625;54.322;18.582;2023-05-16T04:56:14;12.07;87.40
69436;SHT31;56625;54.322;18.582;2023-05-16T04:58:42;12.03;87.58
69436;SHT31;56625;54.322;18.582;2023-05-16T05:01:10;12.02;87.52
69436;SHT31;56625;54.322;18.582;2023-05-16T05:03:38;12.00;87.40
69436;SHT31;56625;54.322;18.582;2023-05-16T05:06:05;11.98;87.23
69436;SHT31;56625;54.322;18.582;2023-05-16T05:08:33;11.99;87.38
69436;SHT31;56625;54.322;18.582;2023-05-16T05:11:01;12.02;87.35
69436;SHT31;56625;54.322;18.582;2023-05-16T05:13:29;12.05;87.06
69436;SHT31;56625;54.322;18.582;2023-05-16T05:15:57;12.08;86.60
69436;SHT31;56625;54.322;18.582;2023-05-16T05:18:25;12.15;86.55
69436;SHT31;56625;54.322;18.582;2023-05-16T05:20:53;12.23;86.42
69436;SHT31;56625;54.322;18.582;2023-05-16T05:23:20;12.27;86.34
69436;SHT31;56625;54.322;18.582;2023-05-16T05:25:48;12.25;85.86
69436;SHT31;56625;54.322;18.582;2023-05-16T05:28:17;12.21;85.70
69436;SHT31;56625;54.322;18.582;2023-05-16T05:30:45;12.20;85.84
69436;SHT31;56625;54.322;18.582;2023-05-16T05:33:16;12.19;86.00
69436;SHT31;56625;54.322;18.582;2023-05-16T05:35:47;12.19;86.07
69436;SHT31;56625;54.322;18.582;2023-05-16T05:38:15;12.18;86.20
69436;SHT31;56625;54.322;18.582;2023-05-16T05:40:43;12.13;86.09
69436;SHT31;56625;54.322;18.582;2023-05-16T05:43:11;12.10;86.15
69436;SHT31;56625;54.322;18.582;2023-05-16T05:45:38;12.06;86.14
69436;SHT31;56625;54.322;18.582;2023-05-16T05:48:06;12.06;86.32
69436;SHT31;56625;54.322;18.582;2023-05-16T05:50:35;12.08;86.36
69436;SHT31;56625;54.322;18.582;2023-05-16T05:53:04;12.05;86.16
69436;SHT31;56625;54.322;18.582;2023-05-16T05:55:32;12.01;86.38
69436;SHT31;56625;54.322;18.582;2023-05-16T05:58:00;12.00;86.70
69436;SHT31;56625;54.322;18.582;2023-05-16T06:00:31;11.99;86.74
69436;SHT31;56625;54.322;18.582;2023-05-16T06:02:59;12.00;86.84
69436;SHT31;56625;54.322;18.582;2023-05-16T06:05:27;12.01;86.97
69436;SHT31;56625;54.322;18.582;2023-05-16T06:07:56;12.04;86.99
69436;SHT31;56625;54.322;18.582;2023-05-16T06:10:23;12.09;87.04
69436;SHT31;56625;54.322;18.582;2023-05-16T06:12:51;12.15;87.12
69436;SHT31;56625;54.322;18.582;2023-05-16T06:15:19;12.21;86.76
69436;SHT31;56625;54.322;18.582;2023-05-16T06:17:47;12.23;86.60
69436;SHT31;56625;54.322;18.582;2023-05-16T06:20:15;12.27;86.64
69436;SHT31;56625;54.322;18.582;2023-05-16T06:22:43;12.26;86.39
69436;SHT31;56625;54.322;18.582;2023-05-16T06:25:12;12.25;86.24
69436;SHT31;56625;54.322;18.582;2023-05-16T06:27:40;12.27;86.42
69436;SHT31;56625;54.322;18.582;2023-05-16T06:30:08;12.33;86.48
69436;SHT31;56625;54.322;18.582;2023-05-16T06:32:36;12.35;86.53
69436;SHT31;56625;54.322;18.582;2023-05-16T06:35:04;12.35;86.74
69436;SHT31;56625;54.322;18.582;2023-05-16T06:37:32;12.38;86.98
69436;SHT31;56625;54.322;18.582;2023-05-16T06:40:00;12.40;86.66
69436;SHT31;56625;54.322;18.582;2023-05-16T06:42:28;12.44;86.17
69436;SHT31;56625;54.322;18.582;2023-05-16T06:44:55;12.51;85.96
69436;SHT31;56625;54.322;18.582;2023-05-16T06:47:23;12.54;85.57
69436;SHT31;56625;54.322;18.582;2023-05-16T06:49:52;12.54;85.27
69436;SHT31;56625;54.322;18.582;2023-05-16T06:52:20;12.53;85.21
69436;SHT31;56625;54.322;18.582;2023-05-16T06:54:48;12.55;85.04
69436;SHT31;56625;54.322;18.582;2023-05-16T06:57:16;12.60;84.92
69436;SHT31;56625;54.322;18.582;2023-05-16T06:59:44;12.55;84.37
69436;SHT31;56625;54.322;18.582;2023-05-16T07:02:12;12.57;84.77
69436;SHT31;56625;54.322;18.582;2023-05-16T07:04:40;12.62;84.90
69436;SHT31;56625;54.322;18.582;2023-05-16T07:07:08;12.63;84.29
69436;SHT31;56625;54.322;18.582;2023-05-16T07:09:36;12.67;84.49
69436;SHT31;56625;54.322;18.582;2023-05-16T07:12:04;12.73;84.36
69436;SHT31;56625;54.322;18.582;2023-05-16T07:14:33;12.77;84.01
69436;SHT31;56625;54.322;18.582;2023-05-16T07:17:01;12.78;84.27
69436;SHT31;56625;54.322;18.582;2023-05-16T07:19:30;12.82;84.35
69436;SHT31;56625;54.322;18.582;2023-05-16T07:21:58;12.90;83.83
69436;SHT31;56625;54.322;18.582;2023-05-16T07:24:26;12.96;83.97
69436;SHT31;56625;54.322;18.582;2023-05-16T07:26:54;12.98;83.35
69436;SHT31;56625;54.322;18.582;2023-05-16T07:29:22;12.95;83.00
69436;SHT31;56625;54.322;18.582;2023-05-16T07:31:51;12.91;82.68
69436;SHT31;56625;54.322;18.582;2023-05-16T07:34:19;12.90;82.50
69436;SHT31;56625;54.322;18.582;2023-05-16T07:36:47;12.93;82.34
69436;SHT31;56625;54.322;18.582;2023-05-16T07:39:15;12.88;82.37
69436;SHT31;56625;54.322;18.582;2023-05-16T07:41:43;12.90;82.68
69436;SHT31;56625;54.322;18.582;2023-05-16T07:44:11;12.94;82.48
69436;SHT31;56625;54.322;18.582;2023-05-16T07:46:39;12.94;82.47
69436;SHT31;56625;54.322;18.582;2023-05-16T07:49:07;12.88;82.54
69436;SHT31;56625;54.322;18.582;2023-05-16T07:51:35;12.75;83.14
69436;SHT31;56625;54.322;18.582;2023-05-16T07:54:03;12.72;83.95
69436;SHT31;56625;54.322;18.582;2023-05-16T07:56:30;12.67;83.96
69436;SHT31;56625;54.322;18.582;2023-05-16T07:58:59;12.58;84.44
69436;SHT31;56625;54.322;18.582;2023-05-16T08:01:28;12.60;84.86
69436;SHT31;56625;54.322;18.582;2023-05-16T08:03:56;12.63;84.85
69436;SHT31;56625;54.322;18.582;2023-05-16T08:06:23;12.65;84.76
69436;SHT31;56625;54.322;18.582;2023-05-16T08:08:51;12.65;84.59
69436;SHT31;56625;54.322;18.582;2023-05-16T08:11:19;12.65;84.71
69436;SHT31;56625;54.322;18.582;2023-05-16T08:13:49;12.66;84.80
69436;SHT31;56625;54.322;18.582;2023-05-16T08:16:16;12.71;85.15
69436;SHT31;56625;54.322;18.582;2023-05-16T08:18:45;12.74;84.48
69436;SHT31;56625;54.322;18.582;2023-05-16T08:21:13;12.78;84.49
69436;SHT31;56625;54.322;18.582;2023-05-16T08:23:40;12.83;84.44
69436;SHT31;56625;54.322;18.582;2023-05-16T08:26:08;12.84;84.29
69436;SHT31;56625;54.322;18.582;2023-05-16T08:28:36;12.83;84.48
69436;SHT31;56625;54.322;18.582;2023-05-16T08:31:04;12.84;84.23
69436;SHT31;56625;54.322;18.582;2023-05-16T08:33:32;12.85;84.52
69436;SHT31;56625;54.322;18.582;2023-05-16T08:36:00;12.88;84.91
69436;SHT31;56625;54.322;18.582;2023-05-16T08:38:28;12.89;84.96
69436;SHT31;56625;54.322;18.582;2023-05-16T08:40:56;12.87;85.38
69436;SHT31;56625;54.322;18.582;2023-05-16T08:43:24;12.87;85.91
69436;SHT31;56625;54.322;18.582;2023-05-16T08:45:52;12.86;85.86
69436;SHT31;56625;54.322;18.582;2023-05-16T08:48:22;12.86;85.80
69436;SHT31;56625;54.322;18.582;2023-05-16T08:50:51;12.89;85.94
69436;SHT31;56625;54.322;18.582;2023-05-16T08:53:21;12.92;86.02
69436;SHT31;56625;54.322;18.582;2023-05-16T08:55:56;12.93;86.02
69436;SHT31;56625;54.322;18.582;2023-05-16T08:58:25;12.92;86.13
69436;SHT31;56625;54.322;18.582;2023-05-16T09:00:56;12.95;86.27
69436;SHT31;56625;54.322;18.582;2023-05-16T09:03:24;12.99;85.76
69436;SHT31;56625;54.322;18.582;2023-05-16T09:05:54;13.09;85.05
69436;SHT31;56625;54.322;18.582;2023-05-16T09:08:22;13.19;84.40
69436;SHT31;56625;54.322;18.582;2023-05-16T09:10:50;13.32;84.06
69436;SHT31;56625;54.322;18.582;2023-05-16T09:13:18;13.42;83.39
69436;SHT31;56625;54.322;18.582;2023-05-16T09:15:49;13.49;82.60
69436;SHT31;56625;54.322;18.582;2023-05-16T09:18:42;13.58;82.22
69436;SHT31;56625;54.322;18.582;2023-05-16T09:21:13;13.68;81.84
69436;SHT31;56625;54.322;18.582;2023-05-16T09:23:42;13.78;81.62
69436;SHT31;56625;54.322;18.582;2023-05-16T09:26:11;13.82;80.68
69436;SHT31;56625;54.322;18.582;2023-05-16T09:28:39;13.89;80.55
69436;SHT31;56625;54.322;18.582;2023-05-16T09:31:19;14.01;80.88
69436;SHT31;56625;54.322;18.582;2023-05-16T09:33:49;14.17;80.78
69436;SHT31;56625;54.322;18.582;2023-05-16T09:36:17;14.32;80.26
69436;SHT31;56625;54.322;18.582;2023-05-16T09:38:45;14.41;79.27
69436;SHT31;56625;54.322;18.582;2023-05-16T09:41:13;14.52;79.03
69436;SHT31;56625;54.322;18.582;2023-05-16T09:43:41;14.53;78.53
69436;SHT31;56625;54.322;18.582;2023-05-16T09:46:13;14.56;78.17
69436;SHT31;56625;54.322;18.582;2023-05-16T09:48:45;14.61;78.01
69436;SHT31;56625;54.322;18.582;2023-05-16T09:51:14;14.60;77.03
69436;SHT31;56625;54.322;18.582;2023-05-16T09:53:42;14.58;76.19
69436;SHT31;56625;54.322;18.582;2023-05-16T09:56:11;14.64;76.33
69436;SHT31;56625;54.322;18.582;2023-05-16T09:58:42;14.65;76.67
69436;SHT31;56625;54.322;18.582;2023-05-16T10:01:12;14.60;76.25
69436;SHT31;56625;54.322;18.582;2023-05-16T10:03:40;14.48;76.90
69436;SHT31;56625;54.322;18.582;2023-05-16T10:06:10;14.35;77.78
69436;SHT31;56625;54.322;18.582;2023-05-16T10:08:40;14.27;78.06
69436;SHT31;56625;54.322;18.582;2023-05-16T10:11:10;14.23;77.95
69436;SHT31;56625;54.322;18.582;2023-05-16T10:13:39;14.22;78.20
69436;SHT31;56625;54.322;18.582;2023-05-16T10:16:11;14.32;78.22
69436;SHT31;56625;54.322;18.582;2023-05-16T10:18:40;14.56;76.96
69436;SHT31;56625;54.322;18.582;2023-05-16T10:21:12;14.84;76.35
69436;SHT31;56625;54.322;18.582;2023-05-16T10:23:47;15.13;75.39
69436;SHT31;56625;54.322;18.582;2023-05-16T10:26:18;15.19;74.70
69436;SHT31;56625;54.322;18.582;2023-05-16T10:28:49;15.21;74.11
69436;SHT31;56625;54.322;18.582;2023-05-16T10:31:18;15.25;74.14
69436;SHT31;56625;54.322;18.582;2023-05-16T10:33:47;15.35;73.76
69436;SHT31;56625;54.322;18.582;2023-05-16T10:36:16;15.56;72.78
69436;SHT31;56625;54.322;18.582;2023-05-16T10:38:45;15.91;72.71
69436;SHT31;56625;54.322;18.582;2023-05-16T10:41:14;16.02;71.49
69436;SHT31;56625;54.322;18.582;2023-05-16T10:43:44;16.09;71.28
69436;SHT31;56625;54.322;18.582;2023-05-16T10:46:23;16.09;70.45
69436;SHT31;56625;54.322;18.582;2023-05-16T10:48:53;16.13;70.29
69436;SHT31;56625;54.322;18.582;2023-05-16T10:54:03;16.28;70.39
69436;SHT31;56625;54.322;18.582;2023-05-16T10:56:37;16.35;70.02
69436;SHT31;56625;54.322;18.582;2023-05-16T10:59:21;16.31;69.58
69436;SHT31;56625;54.322;18.582;2023-05-16T11:01:54;16.26;68.86
69436;SHT31;56625;54.322;18.582;2023-05-16T11:04:24;16.20;68.83
69436;SHT31;56625;54.322;18.582;2023-05-16T11:07:18;16.16;69.81
69436;SHT31;56625;54.322;18.582;2023-05-16T11:10:01;16.17;70.13
69436;SHT31;56625;54.322;18.582;2023-05-16T11:12:42;16.16;69.65
69436;SHT31;56625;54.322;18.582;2023-05-16T11:15:20;16.17;67.96
69436;SHT31;56625;54.322;18.582;2023-05-16T11:18:05;16.08;67.89
69436;SHT31;56625;54.322;18.582;2023-05-16T11:20:36;15.92;68.31
69436;SHT31;56625;54.322;18.582;2023-05-16T11:25:44;15.92;69.82
69436;SHT31;56625;54.322;18.582;2023-05-16T11:28:16;16.00;69.55
69436;SHT31;56625;54.322;18.582;2023-05-16T11:30:49;16.07;69.39
69436;SHT31;56625;54.322;18.582;2023-05-16T11:33:24;16.07;69.36
69436;SHT31;56625;54.322;18.582;2023-05-16T11:36:02;16.07;70.00
69436;SHT31;56625;54.322;18.582;2023-05-16T11:38:39;16.07;68.93
69436;SHT31;56625;54.322;18.582;2023-05-16T11:41:10;16.04;68.78
69436;SHT31;56625;54.322;18.582;2023-05-16T11:43:39;16.01;68.71
69436;SHT31;56625;54.322;18.582;2023-05-16T11:46:12;15.93;68.57
69436;SHT31;56625;54.322;18.582;2023-05-16T11:48:43;15.90;69.70
69436;SHT31;56625;54.322;18.582;2023-05-16T11:51:16;15.93;70.10
69436;SHT31;56625;54.322;18.582;2023-05-16T11:53:47;16.02;69.51
69436;SHT31;56625;54.322;18.582;2023-05-16T11:56:19;16.02;68.94
69436;SHT31;56625;54.322;18.582;2023-05-16T11:58:49;15.90;68.34
69436;SHT31;56625;54.322;18.582;2023-05-16T12:01:18;15.80;68.88
69436;SHT31;56625;54.322;18.582;2023-05-16T12:03:52;15.73;69.26
69436;SHT31;56625;54.322;18.582;2023-05-16T12:06:24;15.62;69.17
69436;SHT31;56625;54.322;18.582;2023-05-16T12:08:52;15.53;69.60
69436;SHT31;56625;54.322;18.582;2023-05-16T12:11:21;15.51;70.28
69436;SHT31;56625;54.322;18.582;2023-05-16T12:13:50;15.49;70.44
69436;SHT31;56625;54.322;18.582;2023-05-16T12:16:19;15.41;70.23
69436;SHT31;56625;54.322;18.582;2023-05-16T12:18:47;15.32;70.85
69436;SHT31;56625;54.322;18.582;2023-05-16T12:21:16;15.31;71.17
69436;SHT31;56625;54.322;18.582;2023-05-16T12:23:44;15.25;71.30
69436;SHT31;56625;54.322;18.582;2023-05-16T12:26:12;15.23;71.74
69436;SHT31;56625;54.322;18.582;2023-05-16T12:28:40;15.19;71.59
69436;SHT31;56625;54.322;18.582;2023-05-16T12:31:17;15.16;71.82
69436;SHT31;56625;54.322;18.582;2023-05-16T12:33:58;15.25;72.23
69436;SHT31;56625;54.322;18.582;2023-05-16T12:36:29;15.39;71.82
69436;SHT31;56625;54.322;18.582;2023-05-16T12:39:01;15.48;70.89
69436;SHT31;56625;54.322;18.582;2023-05-16T12:41:30;15.56;70.69
69436;SHT31;56625;54.322;18.582;2023-05-16T12:44:11;15.65;69.80
69436;SHT31;56625;54.322;18.582;2023-05-16T12:46:46;15.66;69.74
69436;SHT31;56625;54.322;18.582;2023-05-16T12:49:19;15.55;70.11
69436;SHT31;56625;54.322;18.582;2023-05-16T12:51:51;15.43;70.78
69436;SHT31;56625;54.322;18.582;2023-05-16T12:54:22;15.30;70.97
69436;SHT31;56625;54.322;18.582;2023-05-16T12:56:50;15.15;71.08
69436;SHT31;56625;54.322;18.582;2023-05-16T12:59:17;14.97;71.75
69436;SHT31;56625;54.322;18.582;2023-05-16T13:01:46;14.84;72.24
69436;SHT31;56625;54.322;18.582;2023-05-16T13:04:14;14.72;72.53
69436;SHT31;56625;54.322;18.582;2023-05-16T13:06:46;14.60;72.99
69436;SHT31;56625;54.322;18.582;2023-05-16T13:09:17;14.54;73.14
69436;SHT31;56625;54.322;18.582;2023-05-16T13:11:46;14.46;73.17
69436;SHT31;56625;54.322;18.582;2023-05-16T13:14:15;14.32;73.45
69436;SHT31;56625;54.322;18.582;2023-05-16T13:16:44;14.20;73.70
69436;SHT31;56625;54.322;18.582;2023-05-16T13:19:12;14.12;74.12
69436;SHT31;56625;54.322;18.582;2023-05-16T13:21:40;14.03;74.03
69436;SHT31;56625;54.322;18.582;2023-05-16T13:24:08;14.00;74.19
69436;SHT31;56625;54.322;18.582;2023-05-16T13:26:35;13.94;74.21
69436;SHT31;56625;54.322;18.582;2023-05-16T13:29:03;13.92;74.32
69436;SHT31;56625;54.322;18.582;2023-05-16T13:31:31;13.92;74.13
69436;SHT31;56625;54.322;18.582;2023-05-16T13:33:59;13.89;74.17
69436;SHT31;56625;54.322;18.582;2023-05-16T13:36:27;13.87;74.23
69436;SHT31;56625;54.322;18.582;2023-05-16T13:39:15;13.85;74.29
69436;SHT31;56625;54.322;18.582;2023-05-16T13:41:43;13.83;74.48
69436;SHT31;56625;54.322;18.582;2023-05-16T13:44:14;13.83;74.58
69436;SHT31;56625;54.322;18.582;2023-05-16T13:46:42;13.86;74.60
69436;SHT31;56625;54.322;18.582;2023-05-16T13:49:11;13.86;74.42
69436;SHT31;56625;54.322;18.582;2023-05-16T13:51:41;13.86;74.40
69436;SHT31;56625;54.322;18.582;2023-05-16T13:54:09;13.75;74.13
69436;SHT31;56625;54.322;18.582;2023-05-16T13:56:37;13.64;74.61
69436;SHT31;56625;54.322;18.582;2023-05-16T13:59:05;13.60;75.06
69436;SHT31;56625;54.322;18.582;2023-05-16T14:01:34;13.55;74.74
69436;SHT31;56625;54.322;18.582;2023-05-16T14:04:03;13.51;75.02
69436;SHT31;56625;54.322;18.582;2023-05-16T14:06:31;13.46;75.12
69436;SHT31;56625;54.322;18.582;2023-05-16T14:08:59;13.43;75.27
69436;SHT31;56625;54.322;18.582;2023-05-16T14:11:27;13.42;74.95
69436;SHT31;56625;54.322;18.582;2023-05-16T14:13:56;13.42;74.60
69436;SHT31;56625;54.322;18.582;2023-05-16T14:16:24;13.44;74.61
69436;SHT31;56625;54.322;18.582;2023-05-16T14:18:53;13.47;74.23
69436;SHT31;56625;54.322;18.582;2023-05-16T14:21:21;13.48;74.18
69436;SHT31;56625;54.322;18.582;2023-05-16T14:23:49;13.51;74.32
69436;SHT31;56625;54.322;18.582;2023-05-16T14:26:17;13.53;74.37
69436;SHT31;56625;54.322;18.582;2023-05-16T14:28:49;13.56;74.39
69436;SHT31;56625;54.322;18.582;2023-05-16T14:31:17;13.57;74.36
69436;SHT31;56625;54.322;18.582;2023-05-16T14:33:45;13.61;74.37
69436;SHT31;56625;54.322;18.582;2023-05-16T14:36:13;13.60;74.01
69436;SHT31;56625;54.322;18.582;2023-05-16T14:38:42;13.56;74.13
69436;SHT31;56625;54.322;18.582;2023-05-16T14:41:10;13.54;74.10
69436;SHT31;56625;54.322;18.582;2023-05-16T14:43:39;13.57;74.14
69436;SHT31;56625;54.322;18.582;2023-05-16T14:46:07;13.56;73.81
69436;SHT31;56625;54.322;18.582;2023-05-16T14:48:35;13.51;73.68
69436;SHT31;56625;54.322;18.582;2023-05-16T14:51:03;13.48;73.87
69436;SHT31;56625;54.322;18.582;2023-05-16T14:53:31;13.50;73.98
69436;SHT31;56625;54.322;18.582;2023-05-16T14:55:59;13.48;74.03
69436;SHT31;56625;54.322;18.582;2023-05-16T14:58:29;13.42;74.32
69436;SHT31;56625;54.322;18.582;2023-05-16T15:00:57;13.40;74.64
69436;SHT31;56625;54.322;18.582;2023-05-16T15:03:25;13.40;74.50
69436;SHT31;56625;54.322;18.582;2023-05-16T15:05:54;13.40;74.61
69436;SHT31;56625;54.322;18.582;2023-05-16T15:08:22;13.42;74.53
69436;SHT31;56625;54.322;18.582;2023-05-16T15:10:50;13.51;74.67
69436;SHT31;56625;54.322;18.582;2023-05-16T15:13:18;13.60;73.66
69436;SHT31;56625;54.322;18.582;2023-05-16T15:15:46;13.66;73.62
69436;SHT31;56625;54.322;18.582;2023-05-16T15:18:14;13.71;72.92
69436;SHT31;56625;54.322;18.582;2023-05-16T15:20:42;13.75;72.85
69436;SHT31;56625;54.322;18.582;2023-05-16T15:23:10;13.78;72.73
69436;SHT31;56625;54.322;18.582;2023-05-16T15:25:38;13.82;72.97
69436;SHT31;56625;54.322;18.582;2023-05-16T15:28:06;13.82;72.69
69436;SHT31;56625;54.322;18.582;2023-05-16T15:30:34;13.77;72.64
69436;SHT31;56625;54.322;18.582;2023-05-16T15:33:02;13.74;72.59
69436;SHT31;56625;54.322;18.582;2023-05-16T15:35:30;13.77;72.65
69436;SHT31;56625;54.322;18.582;2023-05-16T15:37:58;13.84;72.04
69436;SHT31;56625;54.322;18.582;2023-05-16T15:40:27;13.83;71.10